createdAt,value
2023-05-20T04:55:15.889Z,16.35
2023-05-20T05:00:19.666Z,16.05
2023-05-20T05:05:23.361Z,15.32
2023-05-20T05:10:28.355Z,15.90
2023-05-20T05:15:31.897Z,15.57
2023-05-20T05:20:35.416Z,16.10
2023-05-20T05:25:40.477Z,15.70
2023-05-20T05:30:44.197Z,17.80
2023-05-20T05:35:47.681Z,17.45
2023-05-20T05:40:52.569Z,17.98
2023-05-20T05:45:56.047Z,17.20
2023-05-20T05:50:59.845Z,16.67
2023-05-20T05:56:04.870Z,17.38
2023-05-20T06:01:08.334Z,17.92
2023-05-20T06:06:11.867Z,18.77
2023-05-20T06:11:17.146Z,17.58
2023-05-20T06:16:20.671Z,17.55
2023-05-20T06:21:24.376Z,16.77
2023-05-20T06:26:29.632Z,19.65
2023-05-20T06:31:33.690Z,18.98
2023-05-20T06:36:37.430Z,17.60
2023-05-20T06:41:42.316Z,17.10
2023-05-20T06:46:46.260Z,15.65
2023-05-20T06:51:50.548Z,15.98
2023-05-20T06:56:55.452Z,19.27
2023-05-20T07:01:59.229Z,17.70
2023-05-20T07:07:02.746Z,18.00
2023-05-20T07:12:08.770Z,16.58
2023-05-20T07:17:13.120Z,17.33
2023-05-20T07:22:16.608Z,18.15
2023-05-20T07:27:21.712Z,16.55
2023-05-20T07:32:25.223Z,16.10
2023-05-20T07:37:28.712Z,16.27
2023-05-20T07:42:33.522Z,14.70
2023-05-20T07:47:37.309Z,14.52
2023-05-20T07:52:55.429Z,15.30
2023-05-20T07:58:01.807Z,14.10
2023-05-20T08:03:08.363Z,13.43
2023-05-20T08:08:12.478Z,13.13
2023-05-20T08:13:17.259Z,15.00
2023-05-20T08:18:20.891Z,13.48
2023-05-20T08:23:24.712Z,12.73
2023-05-20T08:28:29.699Z,13.55
2023-05-20T08:33:33.440Z,12.77
2023-05-20T08:38:37.360Z,12.20
2023-05-20T08:43:42.492Z,10.07
2023-05-20T08:48:46.873Z,8.90
2023-05-20T08:53:50.498Z,9.32
2023-05-20T08:58:56.131Z,9.95
2023-05-20T09:03:59.618Z,8.60
2023-05-20T09:09:03.167Z,9.68
2023-05-20T09:14:08.170Z,7.55
2023-05-20T09:19:12.176Z,9.45
2023-05-20T09:24:15.738Z,7.82
2023-05-20T09:29:21.761Z,8.30
2023-05-20T09:34:25.769Z,8.18
2023-05-20T09:39:32.864Z,7.95
2023-05-20T09:44:38.205Z,7.80
2023-05-20T09:49:42.915Z,6.88
2023-05-20T09:54:47.490Z,6.78
2023-05-20T09:59:54.445Z,7.70
2023-05-20T10:04:59.255Z,7.40
2023-05-20T10:10:13.035Z,8.20
2023-05-20T10:15:23.664Z,6.85
2023-05-20T10:20:27.738Z,6.63
2023-05-20T10:25:31.388Z,6.97
2023-05-20T10:30:36.500Z,6.78
2023-05-20T10:35:48.815Z,7.07
2023-05-20T10:40:52.443Z,7.93
2023-05-20T10:45:58.684Z,6.88
2023-05-20T10:51:04.909Z,7.57
2023-05-20T10:56:18.422Z,7.25
2023-05-20T11:01:27.771Z,8.35
2023-05-20T11:06:31.694Z,7.57
2023-05-20T11:11:35.250Z,7.18
2023-05-20T11:16:40.305Z,8.50
2023-05-20T11:21:47.144Z,8.90
2023-05-20T11:26:50.859Z,9.13
2023-05-20T11:31:56.267Z,8.00
2023-05-20T11:37:00.166Z,8.65
2023-05-20T11:42:06.076Z,9.43
2023-05-20T11:47:11.272Z,9.02
2023-05-20T11:52:15.132Z,9.45
2023-05-20T11:57:20.134Z,9.50
2023-05-20T12:02:25.046Z,9.48
2023-05-20T12:07:28.679Z,8.73
2023-05-20T12:12:32.577Z,10.23
2023-05-20T12:17:48.030Z,9.45
2023-05-20T12:22:52.130Z,9.43
2023-05-20T12:27:56.640Z,10.13
2023-05-20T12:33:02.546Z,10.93
2023-05-20T12:38:06.812Z,11.02
2023-05-20T12:43:10.616Z,13.48
2023-05-20T12:48:15.586Z,11.60
2023-05-20T12:53:18.999Z,12.30
2023-05-20T12:58:22.821Z,13.02
2023-05-20T13:03:28.292Z,12.05
2023-05-20T13:08:32.075Z,12.07
2023-05-20T13:13:35.590Z,12.45
2023-05-20T13:18:40.479Z,11.35
2023-05-20T13:23:44.281Z,11.88
2023-05-20T13:28:47.801Z,13.10
2023-05-20T13:33:53.224Z,13.15
2023-05-20T13:38:57.014Z,13.40
2023-05-20T13:44:00.793Z,12.25
2023-05-20T13:49:05.715Z,13.55
2023-05-20T13:54:09.485Z,12.82
2023-05-20T13:59:13.076Z,13.02
2023-05-20T14:04:18.740Z,13.38
2023-05-20T14:09:22.378Z,12.05
2023-05-20T14:14:25.892Z,11.63
2023-05-20T14:19:30.766Z,11.40
2023-05-20T14:24:34.375Z,11.95
2023-05-20T14:29:37.924Z,10.63
2023-05-20T14:34:42.761Z,11.45
2023-05-20T14:39:46.974Z,10.70
2023-05-20T14:44:50.510Z,11.18
2023-05-20T14:49:55.690Z,10.85
2023-05-20T14:54:59.422Z,10.50
2023-05-20T15:00:04.146Z,11.57
2023-05-20T15:05:12.533Z,10.65
2023-05-20T15:10:16.499Z,9.88
2023-05-20T15:15:21.887Z,10.68
2023-05-20T15:20:27.041Z,11.60
2023-05-20T15:25:30.829Z,9.55
2023-05-20T15:30:34.428Z,10.68
2023-05-20T15:35:39.649Z,11.10
2023-05-20T15:40:43.670Z,10.50
2023-05-20T15:45:48.296Z,10.27
2023-05-20T15:50:53.261Z,10.60
2023-05-20T15:55:57.017Z,10.77
2023-05-20T16:01:00.578Z,11.88
2023-05-20T16:06:06.254Z,11.15
2023-05-20T16:11:10.583Z,13.00
2023-05-20T16:16:14.498Z,12.70
2023-05-20T16:21:19.612Z,11.85
2023-05-20T16:26:23.193Z,13.10
2023-05-20T16:31:27.246Z,12.95
2023-05-20T16:36:34.812Z,12.65
2023-05-20T16:41:38.628Z,12.35
2023-05-20T16:46:42.211Z,13.68
2023-05-20T16:51:47.675Z,12.40
2023-05-20T16:56:51.721Z,11.95
2023-05-20T17:01:55.267Z,12.20
2023-05-20T17:07:02.069Z,13.32
2023-05-20T17:12:06.419Z,12.50
2023-05-20T17:17:10.566Z,12.93
2023-05-20T17:22:15.724Z,12.57
2023-05-20T17:27:19.181Z,13.52
2023-05-20T17:32:22.877Z,12.88
2023-05-20T17:37:27.958Z,14.70
2023-05-20T17:42:31.406Z,14.10
2023-05-20T17:47:34.937Z,13.63
2023-05-20T17:52:40.175Z,13.90
2023-05-20T17:57:43.603Z,14.00
2023-05-20T18:08:33.129Z,16.05
2023-05-20T18:13:37.319Z,18.85
2023-05-20T18:18:40.818Z,23.83
2023-05-20T18:23:45.792Z,21.55
2023-05-20T18:28:50.360Z,23.90
2023-05-20T18:33:53.806Z,28.60
2023-05-20T18:38:58.746Z,31.20
2023-05-20T18:44:03.846Z,33.95
2023-05-20T18:49:10.310Z,38.33
2023-05-20T18:54:15.475Z,28.38
2023-05-20T18:59:19.340Z,27.85
2023-05-20T19:04:22.762Z,26.25
2023-05-20T19:09:28.021Z,25.38
2023-05-20T19:14:32.063Z,23.85
2023-05-20T19:19:35.723Z,23.05
2023-05-20T19:24:40.718Z,27.33
2023-05-20T19:29:45.137Z,26.00
2023-05-20T19:34:49.504Z,24.35
2023-05-20T19:39:54.774Z,24.92
2023-05-20T19:44:58.523Z,25.90
2023-05-20T19:50:02.533Z,44.78
2023-05-20T19:55:08.629Z,27.65
2023-05-20T20:00:13.379Z,26.80
2023-05-20T20:05:17.537Z,27.90
2023-05-20T20:10:23.839Z,27.85
2023-05-20T20:15:28.186Z,29.63
2023-05-20T20:20:40.129Z,29.45
2023-05-20T20:25:48.221Z,29.33
2023-05-20T20:30:52.064Z,32.38
2023-05-20T20:35:56.894Z,28.95
2023-05-20T20:41:03.921Z,32.97
2023-05-20T20:46:07.485Z,30.17
2023-05-20T20:51:10.948Z,28.17
2023-05-20T20:56:17.792Z,25.77
2023-05-20T21:01:21.730Z,26.60
2023-05-20T21:06:25.291Z,29.27
2023-05-20T21:11:31.688Z,25.20
2023-05-20T21:16:35.723Z,25.40
2023-05-20T21:21:39.259Z,26.20
2023-05-20T21:26:44.326Z,27.20
2023-05-20T21:31:47.889Z,25.48
2023-05-20T21:36:51.321Z,26.52
2023-05-20T21:41:56.615Z,25.55
2023-05-20T21:47:00.606Z,26.50
2023-05-20T21:52:04.268Z,26.35
2023-05-20T21:57:09.490Z,27.75
2023-05-20T22:02:13.366Z,27.55
2023-05-20T22:07:17.110Z,27.95
2023-05-20T22:12:22.943Z,28.85
2023-05-20T22:17:27.039Z,29.75
2023-05-20T22:22:32.382Z,30.30
2023-05-20T22:27:38.728Z,27.27
2023-05-20T22:45:42.843Z,29.00
2023-05-20T22:50:46.586Z,28.05
2023-05-20T22:55:50.305Z,28.42
2023-05-20T23:00:55.258Z,28.92
2023-05-20T23:05:58.737Z,26.58
2023-05-20T23:11:02.429Z,25.77
2023-05-20T23:16:08.339Z,27.92
2023-05-20T23:21:11.955Z,27.70
2023-05-20T23:26:15.443Z,27.85
2023-05-20T23:31:22.647Z,27.30
2023-05-20T23:36:26.684Z,29.10
2023-05-20T23:41:30.449Z,27.27
2023-05-20T23:46:35.419Z,22.58
2023-05-20T23:51:38.863Z,21.98
2023-05-20T23:56:42.342Z,21.48
